sensor_id;sensor_type;location;lat;lon;timestamp;P1;durP1;ratioP1;P2;durP2;ratioP2
65156;SDS011;52745;49.794;18.258;2023-03-13T00:01:38;3.60;;;2.15;;
65156;SDS011;52745;49.794;18.258;2023-03-13T00:04:11;4.03;;;2.72;;
65156;SDS011;52745;49.794;18.258;2023-03-13T00:06:39;3.42;;;2.55;;
65156;SDS011;52745;49.794;18.258;2023-03-13T00:09:08;4.32;;;2.92;;
65156;SDS011;52745;49.794;18.258;2023-03-13T00:11:36;4.93;;;3.53;;
65156;SDS011;52745;49.794;18.258;2023-03-13T00:14:04;3.58;;;2.47;;
65156;SDS011;52745;49.794;18.258;2023-03-13T00:16:31;4.18;;;2.30;;
65156;SDS011;52745;49.794;18.258;2023-03-13T00:19:03;4.45;;;2.90;;
65156;SDS011;52745;49.794;18.258;2023-03-13T00:21:31;4.60;;;2.50;;
65156;SDS011;52745;49.794;18.258;2023-03-13T00:23:58;6.45;;;2.72;;
65156;SDS011;52745;49.794;18.258;2023-03-13T00:26:25;4.85;;;2.63;;
65156;SDS011;52745;49.794;18.258;2023-03-13T00:28:53;3.65;;;2.42;;
65156;SDS011;52745;49.794;18.258;2023-03-13T00:31:25;4.40;;;2.65;;
65156;SDS011;52745;49.794;18.258;2023-03-13T00:33:56;5.95;;;2.60;;
65156;SDS011;52745;49.794;18.258;2023-03-13T00:36:26;4.00;;;2.83;;
65156;SDS011;52745;49.794;18.258;2023-03-13T00:38:55;4.78;;;2.97;;
65156;SDS011;52745;49.794;18.258;2023-03-13T00:41:24;4.30;;;2.70;;
65156;SDS011;52745;49.794;18.258;2023-03-13T00:43:53;4.85;;;2.92;;
65156;SDS011;52745;49.794;18.258;2023-03-13T00:46:21;5.00;;;2.90;;
65156;SDS011;52745;49.794;18.258;2023-03-13T00:48:50;7.50;;;3.00;;
65156;SDS011;52745;49.794;18.258;2023-03-13T00:51:17;4.38;;;2.80;;
65156;SDS011;52745;49.794;18.258;2023-03-13T00:53:46;4.72;;;2.60;;
65156;SDS011;52745;49.794;18.258;2023-03-13T00:56:13;4.05;;;2.90;;
65156;SDS011;52745;49.794;18.258;2023-03-13T00:58:42;3.50;;;2.60;;
65156;SDS011;52745;49.794;18.258;2023-03-13T01:03:40;4.10;;;2.95;;
65156;SDS011;52745;49.794;18.258;2023-03-13T01:06:09;4.05;;;2.72;;
65156;SDS011;52745;49.794;18.258;2023-03-13T01:08:38;5.85;;;2.90;;
65156;SDS011;52745;49.794;18.258;2023-03-13T01:11:09;4.20;;;2.70;;
65156;SDS011;52745;49.794;18.258;2023-03-13T01:13:38;4.63;;;2.38;;
65156;SDS011;52745;49.794;18.258;2023-03-13T01:16:06;3.72;;;2.50;;
65156;SDS011;52745;49.794;18.258;2023-03-13T01:18:36;3.78;;;2.38;;
65156;SDS011;52745;49.794;18.258;2023-03-13T01:21:04;4.90;;;2.80;;
65156;SDS011;52745;49.794;18.258;2023-03-13T01:23:31;4.38;;;2.70;;
65156;SDS011;52745;49.794;18.258;2023-03-13T01:25:58;5.18;;;3.05;;
65156;SDS011;52745;49.794;18.258;2023-03-13T01:28:25;3.97;;;2.75;;
65156;SDS011;52745;49.794;18.258;2023-03-13T01:30:53;4.55;;;2.67;;
65156;SDS011;52745;49.794;18.258;2023-03-13T01:33:20;4.05;;;2.45;;
65156;SDS011;52745;49.794;18.258;2023-03-13T01:35:47;4.03;;;2.40;;
65156;SDS011;52745;49.794;18.258;2023-03-13T01:38:14;5.40;;;2.58;;
65156;SDS011;52745;49.794;18.258;2023-03-13T01:40:45;4.32;;;3.05;;
65156;SDS011;52745;49.794;18.258;2023-03-13T01:48:50;4.28;;;2.60;;
65156;SDS011;52745;49.794;18.258;2023-03-13T01:54:13;4.32;;;2.72;;
65156;SDS011;52745;49.794;18.258;2023-03-13T01:57:14;4.38;;;2.33;;
65156;SDS011;52745;49.794;18.258;2023-03-13T02:02:40;5.55;;;2.75;;
65156;SDS011;52745;49.794;18.258;2023-03-13T02:05:14;6.40;;;2.88;;
65156;SDS011;52745;49.794;18.258;2023-03-13T02:07:47;6.53;;;3.15;;
65156;SDS011;52745;49.794;18.258;2023-03-13T02:10:20;6.07;;;3.13;;
65156;SDS011;52745;49.794;18.258;2023-03-13T02:12:48;4.68;;;2.80;;
65156;SDS011;52745;49.794;18.258;2023-03-13T02:15:16;3.95;;;2.70;;
65156;SDS011;52745;49.794;18.258;2023-03-13T02:17:45;3.55;;;2.47;;
65156;SDS011;52745;49.794;18.258;2023-03-13T02:20:14;3.55;;;2.60;;
65156;SDS011;52745;49.794;18.258;2023-03-13T02:27:51;4.95;;;2.75;;
65156;SDS011;52745;49.794;18.258;2023-03-13T02:30:23;4.72;;;2.75;;
65156;SDS011;52745;49.794;18.258;2023-03-13T02:32:50;4.72;;;2.70;;
65156;SDS011;52745;49.794;18.258;2023-03-13T02:35:17;4.22;;;2.78;;
65156;SDS011;52745;49.794;18.258;2023-03-13T02:37:58;4.35;;;2.90;;
65156;SDS011;52745;49.794;18.258;2023-03-13T02:40:29;4.57;;;2.95;;
65156;SDS011;52745;49.794;18.258;2023-03-13T02:43:01;4.97;;;2.60;;
65156;SDS011;52745;49.794;18.258;2023-03-13T02:45:33;5.22;;;2.75;;
65156;SDS011;52745;49.794;18.258;2023-03-13T02:48:00;4.97;;;2.78;;
65156;SDS011;52745;49.794;18.258;2023-03-13T02:50:27;5.78;;;2.83;;
65156;SDS011;52745;49.794;18.258;2023-03-13T02:52:55;3.58;;;2.55;;
65156;SDS011;52745;49.794;18.258;2023-03-13T02:55:27;4.22;;;2.83;;
65156;SDS011;52745;49.794;18.258;2023-03-13T02:57:57;4.50;;;2.72;;
65156;SDS011;52745;49.794;18.258;2023-03-13T03:00:24;5.70;;;3.20;;
65156;SDS011;52745;49.794;18.258;2023-03-13T03:02:52;4.18;;;2.97;;
65156;SDS011;52745;49.794;18.258;2023-03-13T03:05:20;6.35;;;2.95;;
65156;SDS011;52745;49.794;18.258;2023-03-13T03:07:48;4.97;;;2.35;;
65156;SDS011;52745;49.794;18.258;2023-03-13T03:10:16;5.45;;;2.88;;
65156;SDS011;52745;49.794;18.258;2023-03-13T03:12:43;5.47;;;2.88;;
65156;SDS011;52745;49.794;18.258;2023-03-13T03:15:10;5.82;;;3.22;;
65156;SDS011;52745;49.794;18.258;2023-03-13T03:17:41;5.28;;;3.30;;
65156;SDS011;52745;49.794;18.258;2023-03-13T03:20:09;6.05;;;3.17;;
65156;SDS011;52745;49.794;18.258;2023-03-13T03:22:41;5.57;;;2.95;;
65156;SDS011;52745;49.794;18.258;2023-03-13T03:25:08;6.03;;;3.72;;
65156;SDS011;52745;49.794;18.258;2023-03-13T03:27:35;5.45;;;2.63;;
65156;SDS011;52745;49.794;18.258;2023-03-13T03:30:05;6.25;;;3.53;;
65156;SDS011;52745;49.794;18.258;2023-03-13T03:32:34;7.22;;;3.67;;
65156;SDS011;52745;49.794;18.258;2023-03-13T03:35:01;7.50;;;2.90;;
65156;SDS011;52745;49.794;18.258;2023-03-13T03:37:28;8.15;;;3.65;;
65156;SDS011;52745;49.794;18.258;2023-03-13T03:39:55;7.93;;;3.88;;
65156;SDS011;52745;49.794;18.258;2023-03-13T03:42:21;6.38;;;3.08;;
65156;SDS011;52745;49.794;18.258;2023-03-13T03:44:48;5.10;;;3.45;;
65156;SDS011;52745;49.794;18.258;2023-03-13T03:47:15;5.22;;;2.83;;
65156;SDS011;52745;49.794;18.258;2023-03-13T03:49:45;5.65;;;3.30;;
65156;SDS011;52745;49.794;18.258;2023-03-13T03:52:12;4.72;;;2.80;;
65156;SDS011;52745;49.794;18.258;2023-03-13T03:54:42;7.47;;;3.40;;
65156;SDS011;52745;49.794;18.258;2023-03-13T03:57:08;5.80;;;3.00;;
65156;SDS011;52745;49.794;18.258;2023-03-13T03:59:37;4.47;;;3.03;;
65156;SDS011;52745;49.794;18.258;2023-03-13T04:02:06;4.07;;;3.10;;
65156;SDS011;52745;49.794;18.258;2023-03-13T04:04:34;4.40;;;3.05;;
65156;SDS011;52745;49.794;18.258;2023-03-13T04:07:17;7.35;;;3.50;;
65156;SDS011;52745;49.794;18.258;2023-03-13T04:09:44;4.97;;;3.00;;
65156;SDS011;52745;49.794;18.258;2023-03-13T04:12:18;5.47;;;2.95;;
65156;SDS011;52745;49.794;18.258;2023-03-13T04:14:46;4.78;;;2.88;;
65156;SDS011;52745;49.794;18.258;2023-03-13T04:17:14;6.13;;;3.10;;
65156;SDS011;52745;49.794;18.258;2023-03-13T04:19:42;4.30;;;3.00;;
65156;SDS011;52745;49.794;18.258;2023-03-13T04:22:09;6.97;;;3.40;;
65156;SDS011;52745;49.794;18.258;2023-03-13T04:24:39;4.07;;;2.70;;
65156;SDS011;52745;49.794;18.258;2023-03-13T04:27:05;5.70;;;3.05;;
65156;SDS011;52745;49.794;18.258;2023-03-13T04:29:32;5.38;;;2.95;;
65156;SDS011;52745;49.794;18.258;2023-03-13T04:32:05;4.30;;;2.97;;
65156;SDS011;52745;49.794;18.258;2023-03-13T04:34:50;7.78;;;3.33;;
65156;SDS011;52745;49.794;18.258;2023-03-13T04:37:52;4.88;;;2.92;;
65156;SDS011;52745;49.794;18.258;2023-03-13T04:40:37;5.95;;;2.92;;
65156;SDS011;52745;49.794;18.258;2023-03-13T04:43:21;6.32;;;3.38;;
65156;SDS011;52745;49.794;18.258;2023-03-13T04:46:05;4.50;;;3.05;;
65156;SDS011;52745;49.794;18.258;2023-03-13T04:48:52;4.72;;;3.08;;
65156;SDS011;52745;49.794;18.258;2023-03-13T04:51:24;6.03;;;3.22;;
65156;SDS011;52745;49.794;18.258;2023-03-13T04:54:12;6.28;;;3.08;;
65156;SDS011;52745;49.794;18.258;2023-03-13T04:57:04;5.30;;;3.10;;
65156;SDS011;52745;49.794;18.258;2023-03-13T04:59:42;6.03;;;3.50;;
65156;SDS011;52745;49.794;18.258;2023-03-13T05:02:20;5.95;;;3.35;;
65156;SDS011;52745;49.794;18.258;2023-03-13T05:05:20;4.88;;;3.25;;
65156;SDS011;52745;49.794;18.258;2023-03-13T05:08:05;5.07;;;3.00;;
65156;SDS011;52745;49.794;18.258;2023-03-13T05:10:50;5.32;;;2.97;;
65156;SDS011;52745;49.794;18.258;2023-03-13T05:13:35;5.68;;;3.40;;
65156;SDS011;52745;49.794;18.258;2023-03-13T05:16:28;5.22;;;3.20;;
65156;SDS011;52745;49.794;18.258;2023-03-13T05:19:13;4.95;;;3.00;;
65156;SDS011;52745;49.794;18.258;2023-03-13T05:21:40;6.35;;;3.22;;
65156;SDS011;52745;49.794;18.258;2023-03-13T05:24:43;5.35;;;3.08;;
65156;SDS011;52745;49.794;18.258;2023-03-13T05:27:40;7.30;;;3.35;;
65156;SDS011;52745;49.794;18.258;2023-03-13T05:30:22;5.50;;;3.35;;
65156;SDS011;52745;49.794;18.258;2023-03-13T05:33:09;5.82;;;3.22;;
65156;SDS011;52745;49.794;18.258;2023-03-13T05:35:59;4.97;;;3.33;;
65156;SDS011;52745;49.794;18.258;2023-03-13T05:38:55;7.68;;;3.67;;
65156;SDS011;52745;49.794;18.258;2023-03-13T05:41:40;5.68;;;3.83;;
65156;SDS011;52745;49.794;18.258;2023-03-13T05:44:27;5.22;;;3.22;;
65156;SDS011;52745;49.794;18.258;2023-03-13T05:47:03;5.30;;;3.50;;
65156;SDS011;52745;49.794;18.258;2023-03-13T05:49:41;6.20;;;3.67;;
65156;SDS011;52745;49.794;18.258;2023-03-13T05:52:29;9.82;;;3.80;;
65156;SDS011;52745;49.794;18.258;2023-03-13T05:54:58;4.80;;;2.92;;
65156;SDS011;52745;49.794;18.258;2023-03-13T05:57:51;9.32;;;3.80;;
65156;SDS011;52745;49.794;18.258;2023-03-13T06:00:43;6.38;;;3.10;;
65156;SDS011;52745;49.794;18.258;2023-03-13T06:03:51;5.88;;;3.00;;
65156;SDS011;52745;49.794;18.258;2023-03-13T06:06:18;6.15;;;3.75;;
65156;SDS011;52745;49.794;18.258;2023-03-13T06:08:51;8.10;;;3.80;;
65156;SDS011;52745;49.794;18.258;2023-03-13T06:11:19;6.95;;;3.42;;
65156;SDS011;52745;49.794;18.258;2023-03-13T06:13:46;4.70;;;3.40;;
65156;SDS011;52745;49.794;18.258;2023-03-13T06:16:25;5.30;;;3.30;;
65156;SDS011;52745;49.794;18.258;2023-03-13T06:18:56;7.82;;;3.42;;
65156;SDS011;52745;49.794;18.258;2023-03-13T06:21:23;10.32;;;5.72;;
65156;SDS011;52745;49.794;18.258;2023-03-13T06:23:50;8.35;;;3.65;;
65156;SDS011;52745;49.794;18.258;2023-03-13T06:26:17;6.35;;;3.60;;
65156;SDS011;52745;49.794;18.258;2023-03-13T06:28:43;5.68;;;3.50;;
65156;SDS011;52745;49.794;18.258;2023-03-13T06:31:10;6.32;;;3.42;;
65156;SDS011;52745;49.794;18.258;2023-03-13T06:33:37;10.25;;;3.88;;
65156;SDS011;52745;49.794;18.258;2023-03-13T06:36:03;7.50;;;3.13;;
65156;SDS011;52745;49.794;18.258;2023-03-13T06:38:31;7.63;;;4.05;;
65156;SDS011;52745;49.794;18.258;2023-03-13T06:40:57;9.68;;;3.90;;
65156;SDS011;52745;49.794;18.258;2023-03-13T06:43:24;6.70;;;3.53;;
65156;SDS011;52745;49.794;18.258;2023-03-13T06:45:51;5.30;;;3.47;;
65156;SDS011;52745;49.794;18.258;2023-03-13T06:48:18;6.32;;;3.70;;
65156;SDS011;52745;49.794;18.258;2023-03-13T06:50:46;7.28;;;3.60;;
65156;SDS011;52745;49.794;18.258;2023-03-13T06:53:17;6.85;;;3.72;;
65156;SDS011;52745;49.794;18.258;2023-03-13T06:55:46;7.00;;;3.28;;
65156;SDS011;52745;49.794;18.258;2023-03-13T06:58:14;8.75;;;3.92;;
65156;SDS011;52745;49.794;18.258;2023-03-13T07:00:41;7.93;;;4.10;;
65156;SDS011;52745;49.794;18.258;2023-03-13T07:03:09;7.88;;;3.90;;
65156;SDS011;52745;49.794;18.258;2023-03-13T07:05:36;6.15;;;3.17;;
65156;SDS011;52745;49.794;18.258;2023-03-13T07:08:03;6.95;;;3.40;;
65156;SDS011;52745;49.794;18.258;2023-03-13T07:10:30;6.65;;;3.30;;
65156;SDS011;52745;49.794;18.258;2023-03-13T07:12:57;6.38;;;3.40;;
65156;SDS011;52745;49.794;18.258;2023-03-13T07:15:24;6.03;;;3.17;;
65156;SDS011;52745;49.794;18.258;2023-03-13T07:17:51;7.70;;;3.10;;
65156;SDS011;52745;49.794;18.258;2023-03-13T07:20:17;5.47;;;2.97;;
65156;SDS011;52745;49.794;18.258;2023-03-13T07:22:49;15.13;;;3.20;;
65156;SDS011;52745;49.794;18.258;2023-03-13T07:25:16;7.13;;;3.33;;
65156;SDS011;52745;49.794;18.258;2023-03-13T07:27:43;6.38;;;3.45;;
65156;SDS011;52745;49.794;18.258;2023-03-13T07:30:10;7.13;;;3.00;;
65156;SDS011;52745;49.794;18.258;2023-03-13T07:32:37;5.78;;;3.25;;
65156;SDS011;52745;49.794;18.258;2023-03-13T07:35:03;6.03;;;2.83;;
65156;SDS011;52745;49.794;18.258;2023-03-13T07:37:31;10.98;;;3.08;;
65156;SDS011;52745;49.794;18.258;2023-03-13T07:39:57;5.43;;;2.90;;
65156;SDS011;52745;49.794;18.258;2023-03-13T07:42:24;8.70;;;3.30;;
65156;SDS011;52745;49.794;18.258;2023-03-13T07:44:52;9.15;;;3.50;;
65156;SDS011;52745;49.794;18.258;2023-03-13T07:47:18;4.78;;;2.97;;
65156;SDS011;52745;49.794;18.258;2023-03-13T07:49:45;5.60;;;2.75;;
65156;SDS011;52745;49.794;18.258;2023-03-13T07:52:12;6.70;;;3.22;;
65156;SDS011;52745;49.794;18.258;2023-03-13T07:54:38;10.00;;;3.05;;
65156;SDS011;52745;49.794;18.258;2023-03-13T07:57:05;7.88;;;2.75;;
65156;SDS011;52745;49.794;18.258;2023-03-13T07:59:32;6.10;;;2.85;;
65156;SDS011;52745;49.794;18.258;2023-03-13T08:01:58;6.05;;;2.72;;
65156;SDS011;52745;49.794;18.258;2023-03-13T08:04:25;7.03;;;3.10;;
65156;SDS011;52745;49.794;18.258;2023-03-13T08:06:52;6.90;;;2.90;;
65156;SDS011;52745;49.794;18.258;2023-03-13T08:09:19;5.65;;;2.75;;
65156;SDS011;52745;49.794;18.258;2023-03-13T08:11:46;4.53;;;2.65;;
65156;SDS011;52745;49.794;18.258;2023-03-13T08:14:14;7.53;;;2.90;;
65156;SDS011;52745;49.794;18.258;2023-03-13T08:16:40;5.70;;;2.72;;
65156;SDS011;52745;49.794;18.258;2023-03-13T08:19:08;4.53;;;2.58;;
65156;SDS011;52745;49.794;18.258;2023-03-13T08:21:36;6.68;;;2.72;;
65156;SDS011;52745;49.794;18.258;2023-03-13T08:24:04;8.80;;;2.53;;
65156;SDS011;52745;49.794;18.258;2023-03-13T08:26:33;7.85;;;2.30;;
65156;SDS011;52745;49.794;18.258;2023-03-13T08:29:03;6.10;;;2.70;;
65156;SDS011;52745;49.794;18.258;2023-03-13T08:31:33;8.48;;;2.90;;
65156;SDS011;52745;49.794;18.258;2023-03-13T08:34:02;5.30;;;2.30;;
65156;SDS011;52745;49.794;18.258;2023-03-13T08:36:32;5.65;;;2.53;;
65156;SDS011;52745;49.794;18.258;2023-03-13T08:39:05;8.27;;;2.33;;
65156;SDS011;52745;49.794;18.258;2023-03-13T08:41:35;5.43;;;2.50;;
65156;SDS011;52745;49.794;18.258;2023-03-13T08:44:05;6.35;;;2.25;;
65156;SDS011;52745;49.794;18.258;2023-03-13T08:46:34;4.47;;;2.20;;
65156;SDS011;52745;49.794;18.258;2023-03-13T08:49:02;6.20;;;2.17;;
65156;SDS011;52745;49.794;18.258;2023-03-13T08:51:30;6.32;;;2.17;;
65156;SDS011;52745;49.794;18.258;2023-03-13T08:53:57;4.18;;;2.15;;
65156;SDS011;52745;49.794;18.258;2023-03-13T08:56:25;3.58;;;2.20;;
65156;SDS011;52745;49.794;18.258;2023-03-13T08:58:54;4.55;;;2.35;;
65156;SDS011;52745;49.794;18.258;2023-03-13T09:01:27;4.28;;;2.40;;
65156;SDS011;52745;49.794;18.258;2023-03-13T09:03:55;4.72;;;2.20;;
65156;SDS011;52745;49.794;18.258;2023-03-13T09:06:22;4.53;;;2.55;;
65156;SDS011;52745;49.794;18.258;2023-03-13T09:08:49;4.00;;;1.90;;
65156;SDS011;52745;49.794;18.258;2023-03-13T09:11:17;5.28;;;2.40;;
65156;SDS011;52745;49.794;18.258;2023-03-13T09:13:45;3.58;;;2.00;;
65156;SDS011;52745;49.794;18.258;2023-03-13T09:16:15;4.93;;;2.25;;
65156;SDS011;52745;49.794;18.258;2023-03-13T09:18:46;3.70;;;2.17;;
65156;SDS011;52745;49.794;18.258;2023-03-13T09:21:14;5.53;;;2.00;;
65156;SDS011;52745;49.794;18.258;2023-03-13T09:23:44;5.35;;;2.13;;
65156;SDS011;52745;49.794;18.258;2023-03-13T09:26:11;6.80;;;2.05;;
65156;SDS011;52745;49.794;18.258;2023-03-13T09:28:38;7.00;;;2.30;;
65156;SDS011;52745;49.794;18.258;2023-03-13T09:33:34;4.63;;;2.10;;
65156;SDS011;52745;49.794;18.258;2023-03-13T09:36:01;5.25;;;2.10;;
65156;SDS011;52745;49.794;18.258;2023-03-13T09:38:27;5.80;;;2.00;;
65156;SDS011;52745;49.794;18.258;2023-03-13T09:40:54;5.65;;;2.05;;
65156;SDS011;52745;49.794;18.258;2023-03-13T09:43:32;7.20;;;2.22;;
65156;SDS011;52745;49.794;18.258;2023-03-13T09:46:08;4.05;;;1.90;;
65156;SDS011;52745;49.794;18.258;2023-03-13T09:48:43;7.80;;;2.08;;
65156;SDS011;52745;49.794;18.258;2023-03-13T09:51:57;4.10;;;1.65;;
65156;SDS011;52745;49.794;18.258;2023-03-13T09:54:25;5.05;;;2.20;;
65156;SDS011;52745;49.794;18.258;2023-03-13T09:57:48;5.53;;;1.75;;
65156;SDS011;52745;49.794;18.258;2023-03-13T10:00:12;3.50;;;1.98;;
65156;SDS011;52745;49.794;18.258;2023-03-13T10:02:45;4.18;;;1.80;;
65156;SDS011;52745;49.794;18.258;2023-03-13T10:05:25;7.80;;;2.08;;
65156;SDS011;52745;49.794;18.258;2023-03-13T10:07:55;3.92;;;1.60;;
65156;SDS011;52745;49.794;18.258;2023-03-13T10:10:45;5.00;;;2.17;;
65156;SDS011;52745;49.794;18.258;2023-03-13T10:13:30;6.43;;;1.90;;
65156;SDS011;52745;49.794;18.258;2023-03-13T10:16:25;5.78;;;2.00;;
65156;SDS011;52745;49.794;18.258;2023-03-13T10:18:54;5.75;;;1.88;;
65156;SDS011;52745;49.794;18.258;2023-03-13T10:21:30;6.25;;;2.00;;
65156;SDS011;52745;49.794;18.258;2023-03-13T10:24:01;5.00;;;2.05;;
65156;SDS011;52745;49.794;18.258;2023-03-13T10:26:35;6.22;;;2.25;;
65156;SDS011;52745;49.794;18.258;2023-03-13T10:29:19;5.88;;;2.10;;
65156;SDS011;52745;49.794;18.258;2023-03-13T10:32:05;4.75;;;1.83;;
65156;SDS011;52745;49.794;18.258;2023-03-13T10:37:26;3.28;;;1.70;;
65156;SDS011;52745;49.794;18.258;2023-03-13T10:40:10;3.88;;;1.70;;
65156;SDS011;52745;49.794;18.258;2023-03-13T10:42:48;6.68;;;1.98;;
65156;SDS011;52745;49.794;18.258;2023-03-13T10:45:18;6.80;;;2.03;;
65156;SDS011;52745;49.794;18.258;2023-03-13T10:47:53;4.40;;;1.85;;
65156;SDS011;52745;49.794;18.258;2023-03-13T10:50:23;9.77;;;2.25;;
65156;SDS011;52745;49.794;18.258;2023-03-13T10:52:51;7.10;;;2.28;;
65156;SDS011;52745;49.794;18.258;2023-03-13T10:55:20;5.75;;;2.42;;
65156;SDS011;52745;49.794;18.258;2023-03-13T10:57:56;8.43;;;2.40;;
65156;SDS011;52745;49.794;18.258;2023-03-13T11:00:31;5.90;;;2.08;;
65156;SDS011;52745;49.794;18.258;2023-03-13T11:02:58;7.88;;;2.45;;
65156;SDS011;52745;49.794;18.258;2023-03-13T11:05:31;7.78;;;2.58;;
65156;SDS011;52745;49.794;18.258;2023-03-13T11:08:22;6.57;;;2.55;;
65156;SDS011;52745;49.794;18.258;2023-03-13T11:10:59;4.53;;;2.20;;
65156;SDS011;52745;49.794;18.258;2023-03-13T11:13:29;5.53;;;2.05;;
65156;SDS011;52745;49.794;18.258;2023-03-13T11:16:08;5.10;;;2.35;;
65156;SDS011;52745;49.794;18.258;2023-03-13T11:19:06;4.82;;;2.08;;
65156;SDS011;52745;49.794;18.258;2023-03-13T11:24:23;5.35;;;1.98;;
65156;SDS011;52745;49.794;18.258;2023-03-13T11:27:03;3.15;;;1.88;;
65156;SDS011;52745;49.794;18.258;2023-03-13T11:32:36;3.35;;;1.98;;
65156;SDS011;52745;49.794;18.258;2023-03-13T11:35:16;6.30;;;2.00;;
65156;SDS011;52745;49.794;18.258;2023-03-13T11:37:59;3.25;;;2.00;;
65156;SDS011;52745;49.794;18.258;2023-03-13T11:43:23;3.17;;;1.70;;
65156;SDS011;52745;49.794;18.258;2023-03-13T11:46:30;3.17;;;1.95;;
65156;SDS011;52745;49.794;18.258;2023-03-13T11:54:57;3.13;;;1.90;;
65156;SDS011;52745;49.794;18.258;2023-03-13T12:01:25;3.35;;;1.92;;
65156;SDS011;52745;49.794;18.258;2023-03-13T12:03:38;4.15;;;1.70;;
65156;SDS011;52745;49.794;18.258;2023-03-13T12:06:21;2.70;;;1.75;;
65156;SDS011;52745;49.794;18.258;2023-03-13T12:08:52;3.80;;;2.03;;
65156;SDS011;52745;49.794;18.258;2023-03-13T12:11:32;3.60;;;1.95;;
65156;SDS011;52745;49.794;18.258;2023-03-13T12:14:04;4.35;;;2.10;;
65156;SDS011;52745;49.794;18.258;2023-03-13T12:19:10;4.57;;;2.28;;
65156;SDS011;52745;49.794;18.258;2023-03-13T12:21:42;5.05;;;2.13;;
65156;SDS011;52745;49.794;18.258;2023-03-13T12:32:35;5.07;;;2.50;;
65156;SDS011;52745;49.794;18.258;2023-03-13T12:37:59;5.15;;;2.60;;
65156;SDS011;52745;49.794;18.258;2023-03-13T12:43:16;4.57;;;2.45;;
65156;SDS011;52745;49.794;18.258;2023-03-13T12:56:18;4.95;;;2.08;;
65156;SDS011;52745;49.794;18.258;2023-03-13T13:01:44;5.78;;;2.20;;
65156;SDS011;52745;49.794;18.258;2023-03-13T13:04:22;2.65;;;1.73;;
65156;SDS011;52745;49.794;18.258;2023-03-13T13:07:06;5.32;;;2.22;;
65156;SDS011;52745;49.794;18.258;2023-03-13T13:15:46;4.22;;;2.10;;
65156;SDS011;52745;49.794;18.258;2023-03-13T13:18:25;7.13;;;2.22;;
65156;SDS011;52745;49.794;18.258;2023-03-13T13:23:35;4.55;;;1.95;;
65156;SDS011;52745;49.794;18.258;2023-03-13T13:28:49;2.65;;;1.77;;
65156;SDS011;52745;49.794;18.258;2023-03-13T13:36:57;3.20;;;2.10;;
65156;SDS011;52745;49.794;18.258;2023-03-13T13:39:31;4.55;;;2.10;;
65156;SDS011;52745;49.794;18.258;2023-03-13T13:47:24;5.38;;;2.40;;
65156;SDS011;52745;49.794;18.258;2023-03-13T13:49:53;4.60;;;2.25;;
65156;SDS011;52745;49.794;18.258;2023-03-13T13:52:33;4.43;;;2.33;;
65156;SDS011;52745;49.794;18.258;2023-03-13T14:01:05;6.75;;;2.30;;
65156;SDS011;52745;49.794;18.258;2023-03-13T14:03:37;5.32;;;2.28;;
65156;SDS011;52745;49.794;18.258;2023-03-13T14:06:16;3.47;;;2.30;;
65156;SDS011;52745;49.794;18.258;2023-03-13T14:08:45;3.95;;;2.00;;
65156;SDS011;52745;49.794;18.258;2023-03-13T14:13:44;3.25;;;1.92;;
65156;SDS011;52745;49.794;18.258;2023-03-13T14:16:17;2.78;;;1.83;;
65156;SDS011;52745;49.794;18.258;2023-03-13T14:18:47;3.55;;;1.73;;
65156;SDS011;52745;49.794;18.258;2023-03-13T14:21:14;2.47;;;1.73;;
65156;SDS011;52745;49.794;18.258;2023-03-13T14:23:47;2.47;;;1.53;;
65156;SDS011;52745;49.794;18.258;2023-03-13T14:26:15;4.78;;;1.83;;
65156;SDS011;52745;49.794;18.258;2023-03-13T14:33:58;5.38;;;1.70;;
65156;SDS011;52745;49.794;18.258;2023-03-13T14:36:26;4.20;;;1.88;;
65156;SDS011;52745;49.794;18.258;2023-03-13T14:38:55;4.07;;;2.00;;
65156;SDS011;52745;49.794;18.258;2023-03-13T14:41:35;3.67;;;2.00;;
65156;SDS011;52745;49.794;18.258;2023-03-13T14:44:09;2.85;;;1.83;;
65156;SDS011;52745;49.794;18.258;2023-03-13T14:47:00;3.90;;;2.20;;
65156;SDS011;52745;49.794;18.258;2023-03-13T14:49:31;3.65;;;2.20;;
65156;SDS011;52745;49.794;18.258;2023-03-13T14:52:01;4.10;;;2.10;;
65156;SDS011;52745;49.794;18.258;2023-03-13T14:54:51;6.93;;;1.80;;
65156;SDS011;52745;49.794;18.258;2023-03-13T14:59:50;4.63;;;2.63;;
65156;SDS011;52745;49.794;18.258;2023-03-13T15:02:25;5.38;;;2.10;;
65156;SDS011;52745;49.794;18.258;2023-03-13T15:04:57;3.55;;;1.83;;
65156;SDS011;52745;49.794;18.258;2023-03-13T15:07:46;5.22;;;2.13;;
65156;SDS011;52745;49.794;18.258;2023-03-13T15:10:24;4.35;;;1.90;;
65156;SDS011;52745;49.794;18.258;2023-03-13T15:12:57;4.05;;;2.35;;
65156;SDS011;52745;49.794;18.258;2023-03-13T15:15:24;3.70;;;2.00;;
65156;SDS011;52745;49.794;18.258;2023-03-13T15:17:51;4.13;;;2.13;;
65156;SDS011;52745;49.794;18.258;2023-03-13T15:20:18;5.57;;;2.20;;
65156;SDS011;52745;49.794;18.258;2023-03-13T15:22:48;4.28;;;1.92;;
65156;SDS011;52745;49.794;18.258;2023-03-13T15:25:18;5.95;;;2.15;;
65156;SDS011;52745;49.794;18.258;2023-03-13T15:27:47;4.90;;;2.00;;
65156;SDS011;52745;49.794;18.258;2023-03-13T15:30:16;7.57;;;2.10;;
65156;SDS011;52745;49.794;18.258;2023-03-13T15:32:44;4.85;;;2.10;;
65156;SDS011;52745;49.794;18.258;2023-03-13T15:35:30;4.13;;;1.80;;
65156;SDS011;52745;49.794;18.258;2023-03-13T15:37:58;3.30;;;1.92;;
65156;SDS011;52745;49.794;18.258;2023-03-13T15:40:29;3.42;;;2.05;;
65156;SDS011;52745;49.794;18.258;2023-03-13T15:42:56;2.88;;;2.00;;
65156;SDS011;52745;49.794;18.258;2023-03-13T15:45:25;3.63;;;1.98;;
65156;SDS011;52745;49.794;18.258;2023-03-13T15:47:52;3.83;;;2.08;;
65156;SDS011;52745;49.794;18.258;2023-03-13T15:50:19;3.85;;;2.00;;
65156;SDS011;52745;49.794;18.258;2023-03-13T15:52:48;4.70;;;1.85;;
65156;SDS011;52745;49.794;18.258;2023-03-13T15:55:16;3.13;;;1.85;;
65156;SDS011;52745;49.794;18.258;2023-03-13T15:57:44;5.57;;;2.20;;
65156;SDS011;52745;49.794;18.258;2023-03-13T16:00:23;3.92;;;2.15;;
65156;SDS011;52745;49.794;18.258;2023-03-13T16:02:51;3.40;;;2.00;;
65156;SDS011;52745;49.794;18.258;2023-03-13T16:05:18;3.42;;;1.92;;
65156;SDS011;52745;49.794;18.258;2023-03-13T16:07:45;2.83;;;1.80;;
65156;SDS011;52745;49.794;18.258;2023-03-13T16:10:13;3.78;;;2.05;;
65156;SDS011;52745;49.794;18.258;2023-03-13T16:12:42;4.90;;;1.92;;
65156;SDS011;52745;49.794;18.258;2023-03-13T16:15:10;5.47;;;2.20;;
65156;SDS011;52745;49.794;18.258;2023-03-13T16:17:36;6.88;;;2.40;;
65156;SDS011;52745;49.794;18.258;2023-03-13T16:20:03;2.50;;;1.80;;
65156;SDS011;52745;49.794;18.258;2023-03-13T16:22:46;2.78;;;1.90;;
65156;SDS011;52745;49.794;18.258;2023-03-13T16:25:13;3.38;;;2.10;;
65156;SDS011;52745;49.794;18.258;2023-03-13T16:27:40;4.28;;;1.88;;
65156;SDS011;52745;49.794;18.258;2023-03-13T16:30:18;5.03;;;1.88;;
65156;SDS011;52745;49.794;18.258;2023-03-13T16:32:46;4.20;;;2.03;;
65156;SDS011;52745;49.794;18.258;2023-03-13T16:35:13;5.72;;;2.00;;
65156;SDS011;52745;49.794;18.258;2023-03-13T16:37:40;3.42;;;1.77;;
65156;SDS011;52745;49.794;18.258;2023-03-13T16:40:18;3.47;;;1.95;;
65156;SDS011;52745;49.794;18.258;2023-03-13T16:42:47;4.20;;;1.70;;
65156;SDS011;52745;49.794;18.258;2023-03-13T16:45:14;3.78;;;1.77;;
65156;SDS011;52745;49.794;18.258;2023-03-13T16:47:41;5.32;;;1.83;;
65156;SDS011;52745;49.794;18.258;2023-03-13T16:52:39;4.63;;;2.03;;
65156;SDS011;52745;49.794;18.258;2023-03-13T16:55:06;3.45;;;2.17;;
65156;SDS011;52745;49.794;18.258;2023-03-13T16:57:33;8.75;;;2.75;;